sensor_id;sensor_type;location;lat;lon;timestamp;temperature;humidity
76893;DHT22;65854;51.466;7.260;2023-01-26T00:01:22;0.10;76.90
76893;DHT22;65854;51.466;7.260;2023-01-26T00:03:50;0.10;77.00
76893;DHT22;65854;51.466;7.260;2023-01-26T00:06:17;0.00;77.10
76893;DHT22;65854;51.466;7.260;2023-01-26T00:08:45;0.00;77.30
76893;DHT22;65854;51.466;7.260;2023-01-26T00:11:14;0.00;77.70
76893;DHT22;65854;51.466;7.260;2023-01-26T00:13:40;0.00;77.40
76893;DHT22;65854;51.466;7.260;2023-01-26T00:16:10;0.00;77.20
76893;DHT22;65854;51.466;7.260;2023-01-26T00:18:37;-0.10;77.50
76893;DHT22;65854;51.466;7.260;2023-01-26T00:21:03;0.00;77.60
76893;DHT22;65854;51.466;7.260;2023-01-26T00:23:31;0.00;77.60
76893;DHT22;65854;51.466;7.260;2023-01-26T00:25:57;0.00;77.50
76893;DHT22;65854;51.466;7.260;2023-01-26T00:28:22;0.00;77.80
76893;DHT22;65854;51.466;7.260;2023-01-26T00:30:48;-0.10;78.20
76893;DHT22;65854;51.466;7.260;2023-01-26T00:33:14;-0.10;78.90
76893;DHT22;65854;51.466;7.260;2023-01-26T00:35:39;-0.10;79.10
76893;DHT22;65854;51.466;7.260;2023-01-26T00:38:12;-0.10;79.00
76893;DHT22;65854;51.466;7.260;2023-01-26T00:40:38;-0.10;79.40
76893;DHT22;65854;51.466;7.260;2023-01-26T00:43:04;-0.10;79.50
76893;DHT22;65854;51.466;7.260;2023-01-26T00:45:29;-0.10;79.70
76893;DHT22;65854;51.466;7.260;2023-01-26T00:47:55;-0.10;79.50
76893;DHT22;65854;51.466;7.260;2023-01-26T00:50:20;-0.10;79.80
76893;DHT22;65854;51.466;7.260;2023-01-26T00:52:46;0.00;80.50
76893;DHT22;65854;51.466;7.260;2023-01-26T00:55:11;0.00;79.50
76893;DHT22;65854;51.466;7.260;2023-01-26T00:57:37;0.00;79.80
76893;DHT22;65854;51.466;7.260;2023-01-26T01:00:04;0.00;79.60
76893;DHT22;65854;51.466;7.260;2023-01-26T01:02:30;0.00;80.30
76893;DHT22;65854;51.466;7.260;2023-01-26T01:04:56;0.00;79.80
76893;DHT22;65854;51.466;7.260;2023-01-26T01:07:22;0.00;79.80
76893;DHT22;65854;51.466;7.260;2023-01-26T01:09:48;0.00;80.00
76893;DHT22;65854;51.466;7.260;2023-01-26T01:12:13;0.00;80.00
76893;DHT22;65854;51.466;7.260;2023-01-26T01:14:39;-0.10;80.10
76893;DHT22;65854;51.466;7.260;2023-01-26T01:17:05;-0.10;80.70
76893;DHT22;65854;51.466;7.260;2023-01-26T01:19:30;-0.10;80.80
76893;DHT22;65854;51.466;7.260;2023-01-26T01:21:56;-0.10;81.40
76893;DHT22;65854;51.466;7.260;2023-01-26T01:24:21;-0.10;81.00
76893;DHT22;65854;51.466;7.260;2023-01-26T01:26:47;0.00;81.70
76893;DHT22;65854;51.466;7.260;2023-01-26T01:29:13;-0.10;81.10
76893;DHT22;65854;51.466;7.260;2023-01-26T01:31:39;-0.10;81.70
76893;DHT22;65854;51.466;7.260;2023-01-26T01:34:05;-0.10;82.20
76893;DHT22;65854;51.466;7.260;2023-01-26T01:36:31;-0.10;82.20
76893;DHT22;65854;51.466;7.260;2023-01-26T01:38:56;0.00;82.30
76893;DHT22;65854;51.466;7.260;2023-01-26T01:41:22;-0.10;82.30
76893;DHT22;65854;51.466;7.260;2023-01-26T01:43:49;0.00;82.40
76893;DHT22;65854;51.466;7.260;2023-01-26T01:46:33;0.00;83.00
76893;DHT22;65854;51.466;7.260;2023-01-26T01:49:18;0.00;82.60
76893;DHT22;65854;51.466;7.260;2023-01-26T01:51:50;0.10;82.50
76893;DHT22;65854;51.466;7.260;2023-01-26T01:54:25;0.10;81.30
76893;DHT22;65854;51.466;7.260;2023-01-26T01:56:55;0.10;82.40
76893;DHT22;65854;51.466;7.260;2023-01-26T01:59:22;0.10;82.80
76893;DHT22;65854;51.466;7.260;2023-01-26T02:01:50;0.10;82.90
76893;DHT22;65854;51.466;7.260;2023-01-26T02:04:16;0.00;82.90
76893;DHT22;65854;51.466;7.260;2023-01-26T02:06:52;0.00;83.10
76893;DHT22;65854;51.466;7.260;2023-01-26T02:09:24;0.00;82.70
76893;DHT22;65854;51.466;7.260;2023-01-26T02:12:11;0.00;83.90
76893;DHT22;65854;51.466;7.260;2023-01-26T02:14:38;0.00;84.40
76893;DHT22;65854;51.466;7.260;2023-01-26T02:17:04;0.10;83.10
76893;DHT22;65854;51.466;7.260;2023-01-26T02:19:57;0.10;83.10
76893;DHT22;65854;51.466;7.260;2023-01-26T02:24:59;0.00;83.50
76893;DHT22;65854;51.466;7.260;2023-01-26T02:27:27;0.00;83.60
76893;DHT22;65854;51.466;7.260;2023-01-26T02:29:54;-0.10;83.10
76893;DHT22;65854;51.466;7.260;2023-01-26T02:32:20;-0.10;83.50
76893;DHT22;65854;51.466;7.260;2023-01-26T02:34:46;-0.10;83.80
76893;DHT22;65854;51.466;7.260;2023-01-26T02:37:13;-0.10;83.90
76893;DHT22;65854;51.466;7.260;2023-01-26T02:39:52;-0.10;83.70
76893;DHT22;65854;51.466;7.260;2023-01-26T02:42:19;-0.20;84.20
76893;DHT22;65854;51.466;7.260;2023-01-26T02:45:04;-0.10;84.70
76893;DHT22;65854;51.466;7.260;2023-01-26T02:47:30;-0.10;84.40
76893;DHT22;65854;51.466;7.260;2023-01-26T02:49:56;-0.10;84.50
76893;DHT22;65854;51.466;7.260;2023-01-26T02:52:26;0.00;83.90
76893;DHT22;65854;51.466;7.260;2023-01-26T02:54:53;-0.10;84.20
76893;DHT22;65854;51.466;7.260;2023-01-26T02:57:37;-0.10;84.10
76893;DHT22;65854;51.466;7.260;2023-01-26T03:00:06;-0.10;83.80
76893;DHT22;65854;51.466;7.260;2023-01-26T03:02:32;-0.10;83.90
76893;DHT22;65854;51.466;7.260;2023-01-26T03:04:58;-0.20;85.00
76893;DHT22;65854;51.466;7.260;2023-01-26T03:07:23;-0.10;85.60
76893;DHT22;65854;51.466;7.260;2023-01-26T03:09:49;0.00;84.70
76893;DHT22;65854;51.466;7.260;2023-01-26T03:12:15;0.00;83.30
76893;DHT22;65854;51.466;7.260;2023-01-26T03:14:41;0.10;83.00
76893;DHT22;65854;51.466;7.260;2023-01-26T03:17:06;0.10;83.40
76893;DHT22;65854;51.466;7.260;2023-01-26T03:19:32;0.10;83.20
76893;DHT22;65854;51.466;7.260;2023-01-26T03:22:16;0.10;83.00
76893;DHT22;65854;51.466;7.260;2023-01-26T03:25:00;0.20;83.00
76893;DHT22;65854;51.466;7.260;2023-01-26T03:27:46;0.20;83.10
76893;DHT22;65854;51.466;7.260;2023-01-26T03:30:13;0.20;83.60
76893;DHT22;65854;51.466;7.260;2023-01-26T03:32:39;0.20;83.50
76893;DHT22;65854;51.466;7.260;2023-01-26T03:35:05;0.20;83.90
76893;DHT22;65854;51.466;7.260;2023-01-26T03:37:31;0.20;83.40
76893;DHT22;65854;51.466;7.260;2023-01-26T03:40:05;0.20;83.40
76893;DHT22;65854;51.466;7.260;2023-01-26T03:42:49;0.20;84.40
76893;DHT22;65854;51.466;7.260;2023-01-26T03:45:33;0.20;83.90
76893;DHT22;65854;51.466;7.260;2023-01-26T03:48:17;0.20;84.50
76893;DHT22;65854;51.466;7.260;2023-01-26T03:51:01;0.30;83.60
76893;DHT22;65854;51.466;7.260;2023-01-26T03:53:45;0.20;84.30
76893;DHT22;65854;51.466;7.260;2023-01-26T03:56:30;0.10;84.60
76893;DHT22;65854;51.466;7.260;2023-01-26T03:59:00;0.10;84.10
76893;DHT22;65854;51.466;7.260;2023-01-26T04:01:40;0.20;84.20
76893;DHT22;65854;51.466;7.260;2023-01-26T04:04:07;0.20;84.10
76893;DHT22;65854;51.466;7.260;2023-01-26T04:06:51;0.20;84.50
76893;DHT22;65854;51.466;7.260;2023-01-26T04:09:36;0.20;83.80
76893;DHT22;65854;51.466;7.260;2023-01-26T04:12:04;0.10;84.30
76893;DHT22;65854;51.466;7.260;2023-01-26T04:14:30;0.10;85.10
76893;DHT22;65854;51.466;7.260;2023-01-26T04:17:14;0.10;85.30
76893;DHT22;65854;51.466;7.260;2023-01-26T04:19:58;0.10;85.60
76893;DHT22;65854;51.466;7.260;2023-01-26T04:22:42;0.20;84.20
76893;DHT22;65854;51.466;7.260;2023-01-26T04:25:11;0.10;83.80
76893;DHT22;65854;51.466;7.260;2023-01-26T04:27:38;0.10;85.20
76893;DHT22;65854;51.466;7.260;2023-01-26T04:30:04;0.10;85.30
76893;DHT22;65854;51.466;7.260;2023-01-26T04:32:30;0.10;85.40
76893;DHT22;65854;51.466;7.260;2023-01-26T04:34:56;0.10;85.00
76893;DHT22;65854;51.466;7.260;2023-01-26T04:37:22;0.10;85.80
76893;DHT22;65854;51.466;7.260;2023-01-26T04:39:47;0.10;84.80
76893;DHT22;65854;51.466;7.260;2023-01-26T04:42:13;0.20;84.70
76893;DHT22;65854;51.466;7.260;2023-01-26T04:44:38;0.20;84.50
76893;DHT22;65854;51.466;7.260;2023-01-26T04:47:04;0.10;84.80
76893;DHT22;65854;51.466;7.260;2023-01-26T04:49:29;0.20;85.40
76893;DHT22;65854;51.466;7.260;2023-01-26T04:51:55;0.20;85.70
76893;DHT22;65854;51.466;7.260;2023-01-26T04:54:21;0.20;85.20
76893;DHT22;65854;51.466;7.260;2023-01-26T04:56:46;0.20;85.50
76893;DHT22;65854;51.466;7.260;2023-01-26T04:59:12;0.20;85.40
76893;DHT22;65854;51.466;7.260;2023-01-26T05:01:39;0.20;85.60
76893;DHT22;65854;51.466;7.260;2023-01-26T05:04:05;0.20;85.50
76893;DHT22;65854;51.466;7.260;2023-01-26T05:06:31;0.20;85.00
76893;DHT22;65854;51.466;7.260;2023-01-26T05:08:57;0.20;85.90
76893;DHT22;65854;51.466;7.260;2023-01-26T05:11:23;0.10;85.90
76893;DHT22;65854;51.466;7.260;2023-01-26T05:13:48;0.20;86.20
76893;DHT22;65854;51.466;7.260;2023-01-26T05:16:14;0.20;86.00
76893;DHT22;65854;51.466;7.260;2023-01-26T05:18:40;0.20;85.60
76893;DHT22;65854;51.466;7.260;2023-01-26T05:21:06;0.30;85.70
76893;DHT22;65854;51.466;7.260;2023-01-26T05:23:31;0.30;85.60
76893;DHT22;65854;51.466;7.260;2023-01-26T05:25:57;0.30;85.20
76893;DHT22;65854;51.466;7.260;2023-01-26T05:28:22;0.40;85.10
76893;DHT22;65854;51.466;7.260;2023-01-26T05:30:48;0.40;85.10
76893;DHT22;65854;51.466;7.260;2023-01-26T05:33:13;0.40;84.80
76893;DHT22;65854;51.466;7.260;2023-01-26T05:35:40;0.30;85.60
76893;DHT22;65854;51.466;7.260;2023-01-26T05:38:05;0.30;85.40
76893;DHT22;65854;51.466;7.260;2023-01-26T05:40:31;0.30;86.00
76893;DHT22;65854;51.466;7.260;2023-01-26T05:42:57;0.30;86.50
76893;DHT22;65854;51.466;7.260;2023-01-26T05:45:22;0.30;85.60
76893;DHT22;65854;51.466;7.260;2023-01-26T05:47:48;0.40;85.20
76893;DHT22;65854;51.466;7.260;2023-01-26T05:50:14;0.40;85.00
76893;DHT22;65854;51.466;7.260;2023-01-26T05:52:41;0.40;85.50
76893;DHT22;65854;51.466;7.260;2023-01-26T05:55:07;0.40;85.00
76893;DHT22;65854;51.466;7.260;2023-01-26T05:57:32;0.40;85.10
76893;DHT22;65854;51.466;7.260;2023-01-26T05:59:58;0.30;84.70
76893;DHT22;65854;51.466;7.260;2023-01-26T06:02:24;0.20;85.10
76893;DHT22;65854;51.466;7.260;2023-01-26T06:04:51;0.10;85.70
76893;DHT22;65854;51.466;7.260;2023-01-26T06:07:17;0.20;85.90
76893;DHT22;65854;51.466;7.260;2023-01-26T06:09:43;0.20;86.00
76893;DHT22;65854;51.466;7.260;2023-01-26T06:12:17;0.20;85.70
76893;DHT22;65854;51.466;7.260;2023-01-26T06:14:43;0.30;85.30
76893;DHT22;65854;51.466;7.260;2023-01-26T06:17:08;0.30;86.00
76893;DHT22;65854;51.466;7.260;2023-01-26T06:19:34;0.20;85.70
76893;DHT22;65854;51.466;7.260;2023-01-26T06:22:00;0.20;86.90
76893;DHT22;65854;51.466;7.260;2023-01-26T06:24:26;0.30;86.40
76893;DHT22;65854;51.466;7.260;2023-01-26T06:26:52;0.30;86.40
76893;DHT22;65854;51.466;7.260;2023-01-26T06:29:17;0.30;85.90
76893;DHT22;65854;51.466;7.260;2023-01-26T06:31:43;0.30;85.70
76893;DHT22;65854;51.466;7.260;2023-01-26T06:34:08;0.40;85.80
76893;DHT22;65854;51.466;7.260;2023-01-26T06:36:35;0.40;85.90
76893;DHT22;65854;51.466;7.260;2023-01-26T06:39:01;0.40;85.80
76893;DHT22;65854;51.466;7.260;2023-01-26T06:41:26;0.40;86.10
76893;DHT22;65854;51.466;7.260;2023-01-26T06:43:52;0.40;85.40
76893;DHT22;65854;51.466;7.260;2023-01-26T06:46:18;0.40;85.80
76893;DHT22;65854;51.466;7.260;2023-01-26T06:48:44;0.30;85.60
76893;DHT22;65854;51.466;7.260;2023-01-26T06:53:51;0.30;86.50
76893;DHT22;65854;51.466;7.260;2023-01-26T06:56:18;0.30;86.30
76893;DHT22;65854;51.466;7.260;2023-01-26T06:58:43;0.40;86.30
76893;DHT22;65854;51.466;7.260;2023-01-26T07:01:15;0.40;86.70
76893;DHT22;65854;51.466;7.260;2023-01-26T07:03:41;0.40;86.30
76893;DHT22;65854;51.466;7.260;2023-01-26T07:06:07;0.40;86.30
76893;DHT22;65854;51.466;7.260;2023-01-26T07:08:36;0.40;85.90
76893;DHT22;65854;51.466;7.260;2023-01-26T07:11:01;0.40;86.50
76893;DHT22;65854;51.466;7.260;2023-01-26T07:13:27;0.40;86.50
76893;DHT22;65854;51.466;7.260;2023-01-26T07:16:05;0.50;85.90
76893;DHT22;65854;51.466;7.260;2023-01-26T07:18:31;0.50;85.80
76893;DHT22;65854;51.466;7.260;2023-01-26T07:21:08;0.50;85.30
76893;DHT22;65854;51.466;7.260;2023-01-26T07:23:34;0.50;85.20
76893;DHT22;65854;51.466;7.260;2023-01-26T07:26:00;0.50;85.00
76893;DHT22;65854;51.466;7.260;2023-01-26T07:28:25;0.50;84.90
76893;DHT22;65854;51.466;7.260;2023-01-26T07:30:52;0.50;85.70
76893;DHT22;65854;51.466;7.260;2023-01-26T07:33:18;0.50;85.80
76893;DHT22;65854;51.466;7.260;2023-01-26T07:35:43;0.60;84.90
76893;DHT22;65854;51.466;7.260;2023-01-26T07:38:09;0.60;85.00
76893;DHT22;65854;51.466;7.260;2023-01-26T07:40:35;0.60;85.10
76893;DHT22;65854;51.466;7.260;2023-01-26T07:43:00;0.60;84.70
76893;DHT22;65854;51.466;7.260;2023-01-26T07:45:26;0.60;84.60
76893;DHT22;65854;51.466;7.260;2023-01-26T07:47:56;0.70;85.10
76893;DHT22;65854;51.466;7.260;2023-01-26T07:50:22;0.60;84.50
76893;DHT22;65854;51.466;7.260;2023-01-26T07:52:50;0.60;84.40
76893;DHT22;65854;51.466;7.260;2023-01-26T07:55:17;0.60;84.60
76893;DHT22;65854;51.466;7.260;2023-01-26T07:57:47;0.70;84.10
76893;DHT22;65854;51.466;7.260;2023-01-26T08:00:14;0.70;84.40
76893;DHT22;65854;51.466;7.260;2023-01-26T08:02:39;0.60;84.00
76893;DHT22;65854;51.466;7.260;2023-01-26T08:05:05;0.40;84.70
76893;DHT22;65854;51.466;7.260;2023-01-26T08:07:31;0.40;85.80
76893;DHT22;65854;51.466;7.260;2023-01-26T08:09:57;0.50;85.60
76893;DHT22;65854;51.466;7.260;2023-01-26T08:12:23;0.60;85.50
76893;DHT22;65854;51.466;7.260;2023-01-26T08:14:49;0.70;85.40
76893;DHT22;65854;51.466;7.260;2023-01-26T08:17:14;0.70;85.20
76893;DHT22;65854;51.466;7.260;2023-01-26T08:19:42;0.70;84.80
76893;DHT22;65854;51.466;7.260;2023-01-26T08:22:07;0.70;84.80
76893;DHT22;65854;51.466;7.260;2023-01-26T08:24:33;0.70;84.50
76893;DHT22;65854;51.466;7.260;2023-01-26T08:26:58;0.70;84.90
76893;DHT22;65854;51.466;7.260;2023-01-26T08:29:24;0.70;85.40
76893;DHT22;65854;51.466;7.260;2023-01-26T08:31:50;0.60;85.40
76893;DHT22;65854;51.466;7.260;2023-01-26T08:34:15;0.70;85.50
76893;DHT22;65854;51.466;7.260;2023-01-26T08:36:41;0.70;85.10
76893;DHT22;65854;51.466;7.260;2023-01-26T08:39:07;0.70;84.70
76893;DHT22;65854;51.466;7.260;2023-01-26T08:41:32;0.70;85.50
76893;DHT22;65854;51.466;7.260;2023-01-26T08:43:58;0.70;85.70
76893;DHT22;65854;51.466;7.260;2023-01-26T08:46:24;0.70;85.40
76893;DHT22;65854;51.466;7.260;2023-01-26T08:48:50;0.80;85.20
76893;DHT22;65854;51.466;7.260;2023-01-26T08:51:16;0.80;84.80
76893;DHT22;65854;51.466;7.260;2023-01-26T08:53:42;0.80;84.80
76893;DHT22;65854;51.466;7.260;2023-01-26T08:56:10;0.80;84.90
76893;DHT22;65854;51.466;7.260;2023-01-26T08:58:36;0.80;85.20
76893;DHT22;65854;51.466;7.260;2023-01-26T09:01:11;0.80;85.40
76893;DHT22;65854;51.466;7.260;2023-01-26T09:03:37;0.90;85.60
76893;DHT22;65854;51.466;7.260;2023-01-26T09:06:04;0.90;85.20
76893;DHT22;65854;51.466;7.260;2023-01-26T09:08:30;0.90;85.00
76893;DHT22;65854;51.466;7.260;2023-01-26T09:10:56;0.90;85.00
76893;DHT22;65854;51.466;7.260;2023-01-26T09:13:21;1.00;84.90
76893;DHT22;65854;51.466;7.260;2023-01-26T09:15:47;1.00;85.60
76893;DHT22;65854;51.466;7.260;2023-01-26T09:18:13;0.90;85.50
76893;DHT22;65854;51.466;7.260;2023-01-26T09:20:39;0.90;86.30
76893;DHT22;65854;51.466;7.260;2023-01-26T09:23:05;1.00;86.40
76893;DHT22;65854;51.466;7.260;2023-01-26T09:25:31;1.00;86.20
76893;DHT22;65854;51.466;7.260;2023-01-26T09:27:56;1.00;86.00
76893;DHT22;65854;51.466;7.260;2023-01-26T09:30:22;1.00;85.40
76893;DHT22;65854;51.466;7.260;2023-01-26T09:32:51;1.00;85.30
76893;DHT22;65854;51.466;7.260;2023-01-26T09:35:16;1.00;85.70
76893;DHT22;65854;51.466;7.260;2023-01-26T09:37:43;1.00;85.70
76893;DHT22;65854;51.466;7.260;2023-01-26T09:40:16;0.90;86.00
76893;DHT22;65854;51.466;7.260;2023-01-26T09:42:59;0.90;86.20
76893;DHT22;65854;51.466;7.260;2023-01-26T09:45:40;0.90;86.30
76893;DHT22;65854;51.466;7.260;2023-01-26T09:50:56;0.80;87.00
76893;DHT22;65854;51.466;7.260;2023-01-26T09:53:30;0.90;86.60
76893;DHT22;65854;51.466;7.260;2023-01-26T09:55:59;0.90;87.30
76893;DHT22;65854;51.466;7.260;2023-01-26T09:58:33;0.90;86.90
76893;DHT22;65854;51.466;7.260;2023-01-26T10:01:02;0.80;87.10
76893;DHT22;65854;51.466;7.260;2023-01-26T10:03:43;0.90;87.90
76893;DHT22;65854;51.466;7.260;2023-01-26T10:06:24;0.90;87.80
76893;DHT22;65854;51.466;7.260;2023-01-26T10:09:05;0.90;87.30
76893;DHT22;65854;51.466;7.260;2023-01-26T10:11:42;1.00;87.20
76893;DHT22;65854;51.466;7.260;2023-01-26T10:16:57;1.10;87.50
76893;DHT22;65854;51.466;7.260;2023-01-26T10:19:42;1.10;87.20
76893;DHT22;65854;51.466;7.260;2023-01-26T10:22:34;1.20;87.80
76893;DHT22;65854;51.466;7.260;2023-01-26T10:25:14;1.20;88.40
76893;DHT22;65854;51.466;7.260;2023-01-26T10:27:41;1.20;88.00
76893;DHT22;65854;51.466;7.260;2023-01-26T10:30:18;1.20;87.40
76893;DHT22;65854;51.466;7.260;2023-01-26T10:32:45;1.20;86.90
76893;DHT22;65854;51.466;7.260;2023-01-26T10:35:20;1.10;88.00
76893;DHT22;65854;51.466;7.260;2023-01-26T10:37:47;1.10;87.30
76893;DHT22;65854;51.466;7.260;2023-01-26T10:40:13;1.20;87.40
76893;DHT22;65854;51.466;7.260;2023-01-26T10:42:39;1.10;87.20
76893;DHT22;65854;51.466;7.260;2023-01-26T10:50:33;1.10;87.50
76893;DHT22;65854;51.466;7.260;2023-01-26T10:53:01;1.20;87.30
76893;DHT22;65854;51.466;7.260;2023-01-26T10:55:28;1.20;86.90
76893;DHT22;65854;51.466;7.260;2023-01-26T10:57:54;1.20;87.10
76893;DHT22;65854;51.466;7.260;2023-01-26T11:03:03;1.20;87.40
76893;DHT22;65854;51.466;7.260;2023-01-26T11:05:29;1.10;88.80
76893;DHT22;65854;51.466;7.260;2023-01-26T11:07:55;1.20;87.90
76893;DHT22;65854;51.466;7.260;2023-01-26T11:10:32;1.20;88.00
76893;DHT22;65854;51.466;7.260;2023-01-26T11:13:15;1.30;87.90
76893;DHT22;65854;51.466;7.260;2023-01-26T11:15:59;1.30;87.30
76893;DHT22;65854;51.466;7.260;2023-01-26T11:18:57;1.30;87.30
76893;DHT22;65854;51.466;7.260;2023-01-26T11:30:05;1.30;87.90
76893;DHT22;65854;51.466;7.260;2023-01-26T11:32:57;1.40;88.00
76893;DHT22;65854;51.466;7.260;2023-01-26T11:41:18;1.50;87.90
76893;DHT22;65854;51.466;7.260;2023-01-26T11:44:18;1.50;87.30
76893;DHT22;65854;51.466;7.260;2023-01-26T11:52:35;1.50;87.10
76893;DHT22;65854;51.466;7.260;2023-01-26T11:56:28;1.40;87.50
76893;DHT22;65854;51.466;7.260;2023-01-26T11:58:29;1.30;87.60
76893;DHT22;65854;51.466;7.260;2023-01-26T12:00:58;1.40;88.30
76893;DHT22;65854;51.466;7.260;2023-01-26T12:06:03;1.40;88.10
76893;DHT22;65854;51.466;7.260;2023-01-26T12:08:41;1.50;88.30
76893;DHT22;65854;51.466;7.260;2023-01-26T12:11:18;1.60;88.90
76893;DHT22;65854;51.466;7.260;2023-01-26T12:16:42;1.60;87.50
76893;DHT22;65854;51.466;7.260;2023-01-26T12:19:42;1.50;87.60
76893;DHT22;65854;51.466;7.260;2023-01-26T12:22:19;1.50;88.00
76893;DHT22;65854;51.466;7.260;2023-01-26T12:27:44;1.50;89.10
76893;DHT22;65854;51.466;7.260;2023-01-26T12:30:29;1.50;89.00
76893;DHT22;65854;51.466;7.260;2023-01-26T12:32:55;1.50;88.30
76893;DHT22;65854;51.466;7.260;2023-01-26T12:38:11;1.50;88.70
76893;DHT22;65854;51.466;7.260;2023-01-26T12:40:39;1.50;89.10
76893;DHT22;65854;51.466;7.260;2023-01-26T12:45:46;1.50;90.00
76893;DHT22;65854;51.466;7.260;2023-01-26T12:48:17;1.50;90.00
76893;DHT22;65854;51.466;7.260;2023-01-26T12:50:50;1.40;89.00
76893;DHT22;65854;51.466;7.260;2023-01-26T12:53:33;1.40;89.90
76893;DHT22;65854;51.466;7.260;2023-01-26T12:58:41;1.50;89.80
76893;DHT22;65854;51.466;7.260;2023-01-26T13:01:11;1.50;90.00
76893;DHT22;65854;51.466;7.260;2023-01-26T13:04:07;1.50;89.50
76893;DHT22;65854;51.466;7.260;2023-01-26T13:06:33;1.50;89.80
76893;DHT22;65854;51.466;7.260;2023-01-26T13:09:18;1.60;90.60
76893;DHT22;65854;51.466;7.260;2023-01-26T13:11:51;1.60;90.30
76893;DHT22;65854;51.466;7.260;2023-01-26T13:22:36;1.60;90.50
76893;DHT22;65854;51.466;7.260;2023-01-26T13:25:17;1.50;90.50
76893;DHT22;65854;51.466;7.260;2023-01-26T13:35:20;1.50;90.30
76893;DHT22;65854;51.466;7.260;2023-01-26T13:38:00;1.60;89.80
76893;DHT22;65854;51.466;7.260;2023-01-26T13:40:32;1.60;90.10
76893;DHT22;65854;51.466;7.260;2023-01-26T13:46:16;1.60;89.90
76893;DHT22;65854;51.466;7.260;2023-01-26T13:48:48;1.50;90.40
76893;DHT22;65854;51.466;7.260;2023-01-26T13:51:16;1.60;91.10
76893;DHT22;65854;51.466;7.260;2023-01-26T13:53:46;1.60;90.70
76893;DHT22;65854;51.466;7.260;2023-01-26T13:56:27;1.60;90.70
76893;DHT22;65854;51.466;7.260;2023-01-26T13:59:08;1.70;90.40
76893;DHT22;65854;51.466;7.260;2023-01-26T14:01:49;1.70;90.80
76893;DHT22;65854;51.466;7.260;2023-01-26T14:04:27;1.80;90.60
76893;DHT22;65854;51.466;7.260;2023-01-26T14:07:14;1.80;90.40
76893;DHT22;65854;51.466;7.260;2023-01-26T14:09:48;1.80;90.60
76893;DHT22;65854;51.466;7.260;2023-01-26T14:12:26;1.90;90.70
76893;DHT22;65854;51.466;7.260;2023-01-26T14:15:05;1.90;90.30
76893;DHT22;65854;51.466;7.260;2023-01-26T14:17:32;1.90;90.70
76893;DHT22;65854;51.466;7.260;2023-01-26T14:19:59;1.80;91.00
76893;DHT22;65854;51.466;7.260;2023-01-26T14:22:28;1.80;91.40
76893;DHT22;65854;51.466;7.260;2023-01-26T14:24:54;1.90;91.80
76893;DHT22;65854;51.466;7.260;2023-01-26T14:29:54;1.90;91.40
76893;DHT22;65854;51.466;7.260;2023-01-26T14:32:20;1.90;91.60
76893;DHT22;65854;51.466;7.260;2023-01-26T14:34:55;1.90;92.50
76893;DHT22;65854;51.466;7.260;2023-01-26T14:37:21;1.90;92.80
76893;DHT22;65854;51.466;7.260;2023-01-26T14:39:48;1.90;93.30
76893;DHT22;65854;51.466;7.260;2023-01-26T14:42:16;1.90;93.50
76893;DHT22;65854;51.466;7.260;2023-01-26T14:44:42;2.00;93.70
76893;DHT22;65854;51.466;7.260;2023-01-26T14:47:28;2.00;93.80
76893;DHT22;65854;51.466;7.260;2023-01-26T14:50:05;2.10;93.90
76893;DHT22;65854;51.466;7.260;2023-01-26T14:52:33;2.10;93.90
76893;DHT22;65854;51.466;7.260;2023-01-26T14:55:23;2.20;94.10
76893;DHT22;65854;51.466;7.260;2023-01-26T14:57:50;2.30;94.00
76893;DHT22;65854;51.466;7.260;2023-01-26T15:00:28;2.30;93.90
76893;DHT22;65854;51.466;7.260;2023-01-26T15:02:56;2.40;93.70
76893;DHT22;65854;51.466;7.260;2023-01-26T15:05:35;2.40;93.60
76893;DHT22;65854;51.466;7.260;2023-01-26T15:08:04;2.40;93.40
76893;DHT22;65854;51.466;7.260;2023-01-26T15:10:39;2.50;93.20
76893;DHT22;65854;51.466;7.260;2023-01-26T15:15:45;2.50;92.60
76893;DHT22;65854;51.466;7.260;2023-01-26T15:20:56;2.60;92.30
76893;DHT22;65854;51.466;7.260;2023-01-26T15:23:36;2.60;92.20
76893;DHT22;65854;51.466;7.260;2023-01-26T15:26:04;2.60;91.80
76893;DHT22;65854;51.466;7.260;2023-01-26T15:28:30;2.60;91.50
76893;DHT22;65854;51.466;7.260;2023-01-26T15:30:56;2.60;91.40
76893;DHT22;65854;51.466;7.260;2023-01-26T15:38:46;2.60;91.40
76893;DHT22;65854;51.466;7.260;2023-01-26T15:41:12;2.70;91.50
76893;DHT22;65854;51.466;7.260;2023-01-26T15:43:38;2.70;91.20
76893;DHT22;65854;51.466;7.260;2023-01-26T15:46:04;2.70;91.00
76893;DHT22;65854;51.466;7.260;2023-01-26T15:48:29;2.70;90.50
76893;DHT22;65854;51.466;7.260;2023-01-26T15:50:58;2.70;90.60
76893;DHT22;65854;51.466;7.260;2023-01-26T15:53:24;2.70;90.80
76893;DHT22;65854;51.466;7.260;2023-01-26T15:55:50;2.80;91.00
76893;DHT22;65854;51.466;7.260;2023-01-26T15:58:26;2.80;90.90
76893;DHT22;65854;51.466;7.260;2023-01-26T16:00:53;2.80;91.00
76893;DHT22;65854;51.466;7.260;2023-01-26T16:03:20;2.80;91.00
76893;DHT22;65854;51.466;7.260;2023-01-26T16:05:46;2.80;90.60
76893;DHT22;65854;51.466;7.260;2023-01-26T16:08:16;2.80;90.40
76893;DHT22;65854;51.466;7.260;2023-01-26T16:10:42;2.80;90.80
76893;DHT22;65854;51.466;7.260;2023-01-26T16:13:10;2.80;90.90
76893;DHT22;65854;51.466;7.260;2023-01-26T16:18:01;2.80;91.20
76893;DHT22;65854;51.466;7.260;2023-01-26T16:20:27;2.90;91.20
76893;DHT22;65854;51.466;7.260;2023-01-26T16:22:52;2.90;91.00
76893;DHT22;65854;51.466;7.260;2023-01-26T16:25:26;2.90;90.90
76893;DHT22;65854;51.466;7.260;2023-01-26T16:27:53;2.90;91.00
76893;DHT22;65854;51.466;7.260;2023-01-26T16:30:19;2.90;91.00
76893;DHT22;65854;51.466;7.260;2023-01-26T16:32:45;2.90;91.00
76893;DHT22;65854;51.466;7.260;2023-01-26T16:35:14;2.90;91.00
76893;DHT22;65854;51.466;7.260;2023-01-26T16:37:40;2.90;91.10
76893;DHT22;65854;51.466;7.260;2023-01-26T16:40:06;2.90;91.00
76893;DHT22;65854;51.466;7.260;2023-01-26T16:42:33;2.90;91.10
76893;DHT22;65854;51.466;7.260;2023-01-26T16:45:00;3.00;91.20
76893;DHT22;65854;51.466;7.260;2023-01-26T16:47:26;3.00;91.10
76893;DHT22;65854;51.466;7.260;2023-01-26T16:49:52;3.00;91.00
76893;DHT22;65854;51.466;7.260;2023-01-26T16:52:17;3.00;91.00
76893;DHT22;65854;51.466;7.260;2023-01-26T16:54:43;3.00;91.00
76893;DHT22;65854;51.466;7.260;2023-01-26T16:57:09;3.00;91.10
76893;DHT22;65854;51.466;7.260;2023-01-26T16:59:35;3.00;91.30
76893;DHT22;65854;51.466;7.260;2023-01-26T17:02:01;3.00;91.20
76893;DHT22;65854;51.466;7.260;2023-01-26T17:04:27;3.00;91.20
76893;DHT22;65854;51.466;7.260;2023-01-26T17:06:52;3.10;91.20
76893;DHT22;65854;51.466;7.260;2023-01-26T17:09:18;3.00;91.20
76893;DHT22;65854;51.466;7.260;2023-01-26T17:11:45;3.10;91.20
76893;DHT22;65854;51.466;7.260;2023-01-26T17:14:11;3.10;91.10
76893;DHT22;65854;51.466;7.260;2023-01-26T17:16:37;3.10;91.00
76893;DHT22;65854;51.466;7.260;2023-01-26T17:19:03;3.10;91.10
76893;DHT22;65854;51.466;7.260;2023-01-26T17:21:29;3.10;91.20
76893;DHT22;65854;51.466;7.260;2023-01-26T17:23:56;3.10;91.30
76893;DHT22;65854;51.466;7.260;2023-01-26T17:26:23;3.10;91.20
76893;DHT22;65854;51.466;7.260;2023-01-26T17:28:51;3.10;91.10
76893;DHT22;65854;51.466;7.260;2023-01-26T17:31:19;3.10;90.70